sensor_id;sensor_type;location;lat;lon;timestamp;temperature;humidity
38726;DHT22;24474;48.906;8.808;2023-03-25T00:00:09;8.70;99.90
38726;DHT22;24474;48.906;8.808;2023-03-25T00:02:44;8.80;99.90
38726;DHT22;24474;48.906;8.808;2023-03-25T00:05:11;8.70;99.90
38726;DHT22;24474;48.906;8.808;2023-03-25T00:07:41;8.80;99.90
38726;DHT22;24474;48.906;8.808;2023-03-25T00:10:10;8.80;99.90
38726;DHT22;24474;48.906;8.808;2023-03-25T00:12:40;8.80;99.90
38726;DHT22;24474;48.906;8.808;2023-03-25T00:15:09;8.90;99.90
38726;DHT22;24474;48.906;8.808;2023-03-25T00:17:36;8.80;99.90
38726;DHT22;24474;48.906;8.808;2023-03-25T00:20:05;8.80;99.90
38726;DHT22;24474;48.906;8.808;2023-03-25T00:22:35;8.80;99.90
38726;DHT22;24474;48.906;8.808;2023-03-25T00:25:14;8.80;99.90
38726;DHT22;24474;48.906;8.808;2023-03-25T00:27:42;8.80;99.90
38726;DHT22;24474;48.906;8.808;2023-03-25T00:30:10;8.80;99.90
38726;DHT22;24474;48.906;8.808;2023-03-25T00:32:37;8.80;99.90
38726;DHT22;24474;48.906;8.808;2023-03-25T00:35:07;8.80;99.90
38726;DHT22;24474;48.906;8.808;2023-03-25T00:37:34;8.70;99.90
38726;DHT22;24474;48.906;8.808;2023-03-25T00:40:01;8.70;99.90
38726;DHT22;24474;48.906;8.808;2023-03-25T00:42:28;8.70;99.90
38726;DHT22;24474;48.906;8.808;2023-03-25T00:44:55;8.70;99.90
38726;DHT22;24474;48.906;8.808;2023-03-25T00:47:20;8.70;99.90
38726;DHT22;24474;48.906;8.808;2023-03-25T00:49:48;8.70;99.90
38726;DHT22;24474;48.906;8.808;2023-03-25T00:52:15;8.70;99.90
38726;DHT22;24474;48.906;8.808;2023-03-25T00:54:43;8.70;99.90
38726;DHT22;24474;48.906;8.808;2023-03-25T00:57:11;8.70;99.90
38726;DHT22;24474;48.906;8.808;2023-03-25T00:59:38;8.70;99.90
38726;DHT22;24474;48.906;8.808;2023-03-25T01:02:04;8.60;99.90
38726;DHT22;24474;48.906;8.808;2023-03-25T01:04:32;8.60;99.90
38726;DHT22;24474;48.906;8.808;2023-03-25T01:06:58;8.70;99.90
38726;DHT22;24474;48.906;8.808;2023-03-25T01:09:27;8.70;99.90
38726;DHT22;24474;48.906;8.808;2023-03-25T01:11:52;8.60;99.90
38726;DHT22;24474;48.906;8.808;2023-03-25T01:14:20;8.70;99.90
38726;DHT22;24474;48.906;8.808;2023-03-25T01:16:49;8.60;99.90
38726;DHT22;24474;48.906;8.808;2023-03-25T01:19:15;8.70;99.90
38726;DHT22;24474;48.906;8.808;2023-03-25T01:21:42;8.70;99.90
38726;DHT22;24474;48.906;8.808;2023-03-25T01:24:13;8.70;99.90
38726;DHT22;24474;48.906;8.808;2023-03-25T01:26:41;8.70;99.90
38726;DHT22;24474;48.906;8.808;2023-03-25T01:29:15;8.70;99.90
38726;DHT22;24474;48.906;8.808;2023-03-25T01:31:44;8.70;99.90
38726;DHT22;24474;48.906;8.808;2023-03-25T01:34:11;8.70;99.90
38726;DHT22;24474;48.906;8.808;2023-03-25T01:36:38;8.70;99.90
38726;DHT22;24474;48.906;8.808;2023-03-25T01:39:07;8.70;99.90
38726;DHT22;24474;48.906;8.808;2023-03-25T01:41:34;8.70;99.90
38726;DHT22;24474;48.906;8.808;2023-03-25T01:46:40;8.60;99.90
38726;DHT22;24474;48.906;8.808;2023-03-25T01:52:08;8.60;99.90
38726;DHT22;24474;48.906;8.808;2023-03-25T01:54:37;8.60;99.90
38726;DHT22;24474;48.906;8.808;2023-03-25T01:57:11;8.70;99.90
38726;DHT22;24474;48.906;8.808;2023-03-25T01:59:39;8.60;99.90
38726;DHT22;24474;48.906;8.808;2023-03-25T02:02:10;8.70;99.90
38726;DHT22;24474;48.906;8.808;2023-03-25T02:07:48;8.70;99.90
38726;DHT22;24474;48.906;8.808;2023-03-25T02:10:17;8.70;99.90
38726;DHT22;24474;48.906;8.808;2023-03-25T02:12:44;8.70;99.90
38726;DHT22;24474;48.906;8.808;2023-03-25T02:15:14;8.50;99.90
38726;DHT22;24474;48.906;8.808;2023-03-25T02:18:01;8.20;99.90
38726;DHT22;24474;48.906;8.808;2023-03-25T02:36:11;7.30;99.90
38726;DHT22;24474;48.906;8.808;2023-03-25T02:38:57;7.30;99.90
38726;DHT22;24474;48.906;8.808;2023-03-25T02:46:48;7.10;99.90
38726;DHT22;24474;48.906;8.808;2023-03-25T02:49:30;7.10;99.90
38726;DHT22;24474;48.906;8.808;2023-03-25T02:54:34;7.10;99.90
38726;DHT22;24474;48.906;8.808;2023-03-25T02:57:09;7.10;99.90
38726;DHT22;24474;48.906;8.808;2023-03-25T02:59:39;7.00;99.90
38726;DHT22;24474;48.906;8.808;2023-03-25T03:02:13;6.90;99.90
38726;DHT22;24474;48.906;8.808;2023-03-25T03:04:53;6.90;99.90
38726;DHT22;24474;48.906;8.808;2023-03-25T03:07:32;7.00;99.90
38726;DHT22;24474;48.906;8.808;2023-03-25T03:10:19;6.90;99.90
38726;DHT22;24474;48.906;8.808;2023-03-25T03:22:33;6.90;99.90
38726;DHT22;24474;48.906;8.808;2023-03-25T03:28:26;6.90;99.90
38726;DHT22;24474;48.906;8.808;2023-03-25T03:31:26;6.90;99.90
38726;DHT22;24474;48.906;8.808;2023-03-25T03:34:12;6.90;99.90
38726;DHT22;24474;48.906;8.808;2023-03-25T03:36:45;6.90;99.90
38726;DHT22;24474;48.906;8.808;2023-03-25T03:39:32;6.90;99.90
38726;DHT22;24474;48.906;8.808;2023-03-25T03:42:13;6.90;99.90
38726;DHT22;24474;48.906;8.808;2023-03-25T03:44:41;6.90;99.90
38726;DHT22;24474;48.906;8.808;2023-03-25T03:47:17;6.90;99.90
38726;DHT22;24474;48.906;8.808;2023-03-25T03:49:49;7.00;99.90
38726;DHT22;24474;48.906;8.808;2023-03-25T03:52:51;6.90;99.90
38726;DHT22;24474;48.906;8.808;2023-03-25T03:55:29;7.00;99.90
38726;DHT22;24474;48.906;8.808;2023-03-25T03:58:02;7.00;99.90
38726;DHT22;24474;48.906;8.808;2023-03-25T04:00:38;7.00;99.90
38726;DHT22;24474;48.906;8.808;2023-03-25T04:11:41;6.90;99.90
38726;DHT22;24474;48.906;8.808;2023-03-25T04:14:09;6.90;99.90
38726;DHT22;24474;48.906;8.808;2023-03-25T04:16:36;6.90;99.90
38726;DHT22;24474;48.906;8.808;2023-03-25T04:19:03;7.00;99.90
38726;DHT22;24474;48.906;8.808;2023-03-25T04:21:31;6.90;99.90
38726;DHT22;24474;48.906;8.808;2023-03-25T04:23:57;6.90;99.90
38726;DHT22;24474;48.906;8.808;2023-03-25T04:26:29;6.90;99.90
38726;DHT22;24474;48.906;8.808;2023-03-25T04:28:59;6.90;99.90
38726;DHT22;24474;48.906;8.808;2023-03-25T04:31:26;6.90;99.90
38726;DHT22;24474;48.906;8.808;2023-03-25T04:33:57;6.80;99.90
38726;DHT22;24474;48.906;8.808;2023-03-25T04:36:24;6.80;99.90
38726;DHT22;24474;48.906;8.808;2023-03-25T04:38:54;6.80;99.90
38726;DHT22;24474;48.906;8.808;2023-03-25T04:41:22;6.80;99.90
38726;DHT22;24474;48.906;8.808;2023-03-25T04:43:52;6.80;99.90
38726;DHT22;24474;48.906;8.808;2023-03-25T04:46:19;6.80;99.90
38726;DHT22;24474;48.906;8.808;2023-03-25T04:48:50;6.90;99.90
38726;DHT22;24474;48.906;8.808;2023-03-25T04:51:21;6.90;99.90
38726;DHT22;24474;48.906;8.808;2023-03-25T04:53:48;6.90;99.90
38726;DHT22;24474;48.906;8.808;2023-03-25T04:56:16;6.90;99.90
38726;DHT22;24474;48.906;8.808;2023-03-25T04:58:43;6.90;99.90
38726;DHT22;24474;48.906;8.808;2023-03-25T05:01:22;6.90;99.90
38726;DHT22;24474;48.906;8.808;2023-03-25T05:03:49;6.90;99.90
38726;DHT22;24474;48.906;8.808;2023-03-25T05:06:16;6.90;99.90
38726;DHT22;24474;48.906;8.808;2023-03-25T05:08:43;7.00;99.90
38726;DHT22;24474;48.906;8.808;2023-03-25T05:11:10;7.00;99.90
38726;DHT22;24474;48.906;8.808;2023-03-25T05:13:36;7.00;99.90
38726;DHT22;24474;48.906;8.808;2023-03-25T05:16:04;7.00;99.90
38726;DHT22;24474;48.906;8.808;2023-03-25T05:18:29;7.00;99.90
38726;DHT22;24474;48.906;8.808;2023-03-25T05:20:56;7.00;99.90
38726;DHT22;24474;48.906;8.808;2023-03-25T05:23:21;7.10;99.90
38726;DHT22;24474;48.906;8.808;2023-03-25T05:25:49;7.20;99.90
38726;DHT22;24474;48.906;8.808;2023-03-25T05:28:16;7.10;99.90
38726;DHT22;24474;48.906;8.808;2023-03-25T05:30:45;7.20;99.90
38726;DHT22;24474;48.906;8.808;2023-03-25T05:33:13;7.20;99.90
38726;DHT22;24474;48.906;8.808;2023-03-25T05:35:43;7.20;99.90
38726;DHT22;24474;48.906;8.808;2023-03-25T05:38:11;7.20;99.90
38726;DHT22;24474;48.906;8.808;2023-03-25T05:40:39;7.20;99.90
38726;DHT22;24474;48.906;8.808;2023-03-25T05:43:06;7.30;99.90
38726;DHT22;24474;48.906;8.808;2023-03-25T05:45:32;7.30;99.90
38726;DHT22;24474;48.906;8.808;2023-03-25T05:48:00;7.30;99.90
38726;DHT22;24474;48.906;8.808;2023-03-25T05:50:26;7.30;99.90
38726;DHT22;24474;48.906;8.808;2023-03-25T05:52:56;7.30;99.90
38726;DHT22;24474;48.906;8.808;2023-03-25T05:55:26;7.30;99.90
38726;DHT22;24474;48.906;8.808;2023-03-25T05:57:54;7.30;99.90
38726;DHT22;24474;48.906;8.808;2023-03-25T06:00:21;7.40;99.90
38726;DHT22;24474;48.906;8.808;2023-03-25T06:02:47;7.30;99.90
38726;DHT22;24474;48.906;8.808;2023-03-25T06:05:15;7.40;99.90
38726;DHT22;24474;48.906;8.808;2023-03-25T06:07:43;7.40;99.90
38726;DHT22;24474;48.906;8.808;2023-03-25T06:10:12;7.40;99.90
38726;DHT22;24474;48.906;8.808;2023-03-25T06:12:44;7.50;99.90
38726;DHT22;24474;48.906;8.808;2023-03-25T06:15:14;7.40;99.90
38726;DHT22;24474;48.906;8.808;2023-03-25T06:17:41;7.40;99.90
38726;DHT22;24474;48.906;8.808;2023-03-25T06:20:09;7.40;99.90
38726;DHT22;24474;48.906;8.808;2023-03-25T06:22:45;7.50;99.90
38726;DHT22;24474;48.906;8.808;2023-03-25T06:25:14;7.50;99.90
38726;DHT22;24474;48.906;8.808;2023-03-25T06:27:45;7.50;99.90
38726;DHT22;24474;48.906;8.808;2023-03-25T06:30:15;7.50;99.90
38726;DHT22;24474;48.906;8.808;2023-03-25T06:32:42;7.50;99.90
38726;DHT22;24474;48.906;8.808;2023-03-25T06:35:09;7.60;99.90
38726;DHT22;24474;48.906;8.808;2023-03-25T06:37:37;7.60;99.90
38726;DHT22;24474;48.906;8.808;2023-03-25T06:40:05;7.60;99.90
38726;DHT22;24474;48.906;8.808;2023-03-25T06:42:32;7.60;99.90
38726;DHT22;24474;48.906;8.808;2023-03-25T06:44:58;7.60;99.90
38726;DHT22;24474;48.906;8.808;2023-03-25T06:47:24;7.70;99.90
38726;DHT22;24474;48.906;8.808;2023-03-25T06:49:50;7.70;99.90
38726;DHT22;24474;48.906;8.808;2023-03-25T06:52:18;7.80;99.90
38726;DHT22;24474;48.906;8.808;2023-03-25T06:54:44;7.80;99.90
38726;DHT22;24474;48.906;8.808;2023-03-25T06:57:11;7.90;99.90
38726;DHT22;24474;48.906;8.808;2023-03-25T06:59:36;7.90;99.90
38726;DHT22;24474;48.906;8.808;2023-03-25T07:02:04;8.00;99.90
38726;DHT22;24474;48.906;8.808;2023-03-25T07:04:31;8.10;99.90
38726;DHT22;24474;48.906;8.808;2023-03-25T07:06:58;8.20;99.90
38726;DHT22;24474;48.906;8.808;2023-03-25T07:09:24;8.20;99.90
38726;DHT22;24474;48.906;8.808;2023-03-25T07:11:51;8.20;99.90
38726;DHT22;24474;48.906;8.808;2023-03-25T07:14:18;8.20;99.90
38726;DHT22;24474;48.906;8.808;2023-03-25T07:16:44;8.30;99.90
38726;DHT22;24474;48.906;8.808;2023-03-25T07:19:12;8.30;99.90
38726;DHT22;24474;48.906;8.808;2023-03-25T07:21:38;8.40;99.90
38726;DHT22;24474;48.906;8.808;2023-03-25T07:24:03;8.40;99.90
38726;DHT22;24474;48.906;8.808;2023-03-25T07:26:29;8.40;99.90
38726;DHT22;24474;48.906;8.808;2023-03-25T07:28:57;8.40;99.90
38726;DHT22;24474;48.906;8.808;2023-03-25T07:31:23;8.40;99.90
38726;DHT22;24474;48.906;8.808;2023-03-25T07:33:49;8.50;99.90
38726;DHT22;24474;48.906;8.808;2023-03-25T07:36:16;8.50;99.90
38726;DHT22;24474;48.906;8.808;2023-03-25T07:38:42;8.60;99.90
38726;DHT22;24474;48.906;8.808;2023-03-25T07:41:10;8.50;99.90
38726;DHT22;24474;48.906;8.808;2023-03-25T07:43:36;8.60;99.90
38726;DHT22;24474;48.906;8.808;2023-03-25T07:46:02;8.60;99.90
38726;DHT22;24474;48.906;8.808;2023-03-25T07:48:28;8.70;99.90
38726;DHT22;24474;48.906;8.808;2023-03-25T07:50:54;8.80;99.90
38726;DHT22;24474;48.906;8.808;2023-03-25T07:53:20;8.80;99.90
38726;DHT22;24474;48.906;8.808;2023-03-25T07:55:46;8.90;99.90
38726;DHT22;24474;48.906;8.808;2023-03-25T07:58:12;9.00;99.90
38726;DHT22;24474;48.906;8.808;2023-03-25T08:00:38;9.00;99.90
38726;DHT22;24474;48.906;8.808;2023-03-25T08:03:04;9.10;99.90
38726;DHT22;24474;48.906;8.808;2023-03-25T08:05:30;9.20;99.90
38726;DHT22;24474;48.906;8.808;2023-03-25T08:07:56;9.20;99.90
38726;DHT22;24474;48.906;8.808;2023-03-25T08:10:24;9.30;99.90
38726;DHT22;24474;48.906;8.808;2023-03-25T08:12:51;9.20;99.90
38726;DHT22;24474;48.906;8.808;2023-03-25T08:15:18;9.30;99.90
38726;DHT22;24474;48.906;8.808;2023-03-25T08:17:44;9.40;99.90
38726;DHT22;24474;48.906;8.808;2023-03-25T08:20:10;9.40;99.90
38726;DHT22;24474;48.906;8.808;2023-03-25T08:22:36;9.50;99.90
38726;DHT22;24474;48.906;8.808;2023-03-25T08:25:02;9.50;99.90
38726;DHT22;24474;48.906;8.808;2023-03-25T08:27:28;9.60;99.90
38726;DHT22;24474;48.906;8.808;2023-03-25T08:29:53;9.70;99.90
38726;DHT22;24474;48.906;8.808;2023-03-25T08:32:20;9.70;99.90
38726;DHT22;24474;48.906;8.808;2023-03-25T08:34:46;9.90;99.90
38726;DHT22;24474;48.906;8.808;2023-03-25T08:37:12;9.80;99.90
38726;DHT22;24474;48.906;8.808;2023-03-25T08:39:39;9.70;99.90
38726;DHT22;24474;48.906;8.808;2023-03-25T08:42:07;9.70;99.90
38726;DHT22;24474;48.906;8.808;2023-03-25T08:44:34;9.60;99.90
38726;DHT22;24474;48.906;8.808;2023-03-25T08:47:00;9.40;99.90
38726;DHT22;24474;48.906;8.808;2023-03-25T08:49:26;9.30;99.90
38726;DHT22;24474;48.906;8.808;2023-03-25T08:51:53;9.30;99.90
38726;DHT22;24474;48.906;8.808;2023-03-25T08:54:18;9.10;99.90
38726;DHT22;24474;48.906;8.808;2023-03-25T08:56:44;9.10;99.90
38726;DHT22;24474;48.906;8.808;2023-03-25T08:59:10;9.10;99.90
38726;DHT22;24474;48.906;8.808;2023-03-25T09:01:37;9.10;99.90
38726;DHT22;24474;48.906;8.808;2023-03-25T09:04:03;9.10;99.90
38726;DHT22;24474;48.906;8.808;2023-03-25T09:06:29;9.10;99.90
38726;DHT22;24474;48.906;8.808;2023-03-25T09:08:54;9.10;99.90
38726;DHT22;24474;48.906;8.808;2023-03-25T09:11:21;9.20;99.90
38726;DHT22;24474;48.906;8.808;2023-03-25T09:13:46;9.20;99.90
38726;DHT22;24474;48.906;8.808;2023-03-25T09:16:12;9.20;99.90
38726;DHT22;24474;48.906;8.808;2023-03-25T09:18:39;9.30;99.90
38726;DHT22;24474;48.906;8.808;2023-03-25T09:21:05;9.40;99.90
38726;DHT22;24474;48.906;8.808;2023-03-25T09:23:30;9.50;99.90
38726;DHT22;24474;48.906;8.808;2023-03-25T09:25:59;9.50;99.90
38726;DHT22;24474;48.906;8.808;2023-03-25T09:28:26;9.60;99.90
38726;DHT22;24474;48.906;8.808;2023-03-25T09:30:53;9.50;99.90
38726;DHT22;24474;48.906;8.808;2023-03-25T09:33:19;9.50;99.90
38726;DHT22;24474;48.906;8.808;2023-03-25T09:35:45;9.50;99.90
38726;DHT22;24474;48.906;8.808;2023-03-25T09:38:12;9.50;99.90
38726;DHT22;24474;48.906;8.808;2023-03-25T09:40:42;9.60;99.90
38726;DHT22;24474;48.906;8.808;2023-03-25T09:46:11;9.50;99.90
38726;DHT22;24474;48.906;8.808;2023-03-25T09:54:30;9.50;99.90
38726;DHT22;24474;48.906;8.808;2023-03-25T09:57:03;9.40;99.90
38726;DHT22;24474;48.906;8.808;2023-03-25T09:59:45;9.40;99.90
38726;DHT22;24474;48.906;8.808;2023-03-25T10:02:30;9.30;99.90
38726;DHT22;24474;48.906;8.808;2023-03-25T10:05:12;9.40;99.90
38726;DHT22;24474;48.906;8.808;2023-03-25T10:10:57;9.40;99.90
38726;DHT22;24474;48.906;8.808;2023-03-25T10:22:16;9.20;99.90
38726;DHT22;24474;48.906;8.808;2023-03-25T10:24:52;9.10;99.90
38726;DHT22;24474;48.906;8.808;2023-03-25T10:27:37;9.00;99.90
38726;DHT22;24474;48.906;8.808;2023-03-25T10:32:43;9.00;99.90
38726;DHT22;24474;48.906;8.808;2023-03-25T10:35:34;8.90;99.90
38726;DHT22;24474;48.906;8.808;2023-03-25T10:38:09;8.90;99.90
38726;DHT22;24474;48.906;8.808;2023-03-25T10:40:42;9.00;99.90
38726;DHT22;24474;48.906;8.808;2023-03-25T10:43:27;9.00;99.90
38726;DHT22;24474;48.906;8.808;2023-03-25T10:46:12;9.10;99.90
38726;DHT22;24474;48.906;8.808;2023-03-25T10:48:38;9.30;99.90
38726;DHT22;24474;48.906;8.808;2023-03-25T10:51:13;9.50;99.90
38726;DHT22;24474;48.906;8.808;2023-03-25T10:53:41;9.60;99.90
38726;DHT22;24474;48.906;8.808;2023-03-25T10:56:19;9.60;99.90
38726;DHT22;24474;48.906;8.808;2023-03-25T10:58:51;9.70;99.90
38726;DHT22;24474;48.906;8.808;2023-03-25T11:01:18;9.80;99.90
38726;DHT22;24474;48.906;8.808;2023-03-25T11:03:48;9.80;99.90
38726;DHT22;24474;48.906;8.808;2023-03-25T11:06:33;9.90;99.90
38726;DHT22;24474;48.906;8.808;2023-03-25T11:11:33;9.90;99.90
38726;DHT22;24474;48.906;8.808;2023-03-25T11:14:00;9.90;99.90
38726;DHT22;24474;48.906;8.808;2023-03-25T11:16:31;10.10;99.90
38726;DHT22;24474;48.906;8.808;2023-03-25T11:19:00;10.10;99.90
38726;DHT22;24474;48.906;8.808;2023-03-25T11:21:31;10.10;99.90
38726;DHT22;24474;48.906;8.808;2023-03-25T11:23:57;10.30;99.90
38726;DHT22;24474;48.906;8.808;2023-03-25T11:26:29;10.40;99.90
38726;DHT22;24474;48.906;8.808;2023-03-25T11:29:07;10.40;99.90
38726;DHT22;24474;48.906;8.808;2023-03-25T11:31:36;10.60;99.90
38726;DHT22;24474;48.906;8.808;2023-03-25T11:36:59;10.70;99.90
38726;DHT22;24474;48.906;8.808;2023-03-25T11:39:29;10.60;99.90
38726;DHT22;24474;48.906;8.808;2023-03-25T11:41:57;10.60;99.90
38726;DHT22;24474;48.906;8.808;2023-03-25T11:44:30;10.60;99.90
38726;DHT22;24474;48.906;8.808;2023-03-25T11:47:03;10.60;99.90
38726;DHT22;24474;48.906;8.808;2023-03-25T11:49:33;10.60;99.90
38726;DHT22;24474;48.906;8.808;2023-03-25T11:54:30;10.70;99.90
38726;DHT22;24474;48.906;8.808;2023-03-25T11:56:56;10.70;99.90
38726;DHT22;24474;48.906;8.808;2023-03-25T11:59:36;10.90;99.90
38726;DHT22;24474;48.906;8.808;2023-03-25T12:02:27;11.00;99.90
38726;DHT22;24474;48.906;8.808;2023-03-25T12:07:27;11.10;99.90
38726;DHT22;24474;48.906;8.808;2023-03-25T12:09:55;11.10;99.90
38726;DHT22;24474;48.906;8.808;2023-03-25T12:12:25;11.10;99.90
38726;DHT22;24474;48.906;8.808;2023-03-25T12:26:12;10.70;99.90
38726;DHT22;24474;48.906;8.808;2023-03-25T12:37:00;10.50;99.90
38726;DHT22;24474;48.906;8.808;2023-03-25T12:42:57;10.60;99.90
38726;DHT22;24474;48.906;8.808;2023-03-25T12:59:47;10.90;99.90
38726;DHT22;24474;48.906;8.808;2023-03-25T13:05:11;11.00;99.90
38726;DHT22;24474;48.906;8.808;2023-03-25T13:07:48;11.10;99.90
38726;DHT22;24474;48.906;8.808;2023-03-25T13:10:20;11.20;99.90
38726;DHT22;24474;48.906;8.808;2023-03-25T13:12:55;11.20;99.90
38726;DHT22;24474;48.906;8.808;2023-03-25T13:15:27;11.30;99.90
38726;DHT22;24474;48.906;8.808;2023-03-25T13:18:05;11.30;99.90
38726;DHT22;24474;48.906;8.808;2023-03-25T13:20:40;11.40;99.90
38726;DHT22;24474;48.906;8.808;2023-03-25T13:23:12;11.40;99.90
38726;DHT22;24474;48.906;8.808;2023-03-25T13:25:50;11.50;99.90
38726;DHT22;24474;48.906;8.808;2023-03-25T13:28:26;11.50;99.90
38726;DHT22;24474;48.906;8.808;2023-03-25T13:30:54;11.60;99.90
38726;DHT22;24474;48.906;8.808;2023-03-25T13:33:31;11.60;99.90
38726;DHT22;24474;48.906;8.808;2023-03-25T13:36:24;11.70;99.90
38726;DHT22;24474;48.906;8.808;2023-03-25T13:39:22;11.70;99.90
38726;DHT22;24474;48.906;8.808;2023-03-25T13:42:04;11.80;99.90
38726;DHT22;24474;48.906;8.808;2023-03-25T13:44:38;11.80;99.90
38726;DHT22;24474;48.906;8.808;2023-03-25T13:47:22;11.70;99.90
38726;DHT22;24474;48.906;8.808;2023-03-25T13:50:25;11.80;99.90
38726;DHT22;24474;48.906;8.808;2023-03-25T13:52:47;11.60;99.90
38726;DHT22;24474;48.906;8.808;2023-03-25T13:55:29;11.50;99.90
38726;DHT22;24474;48.906;8.808;2023-03-25T13:58:24;11.40;99.90
38726;DHT22;24474;48.906;8.808;2023-03-25T14:07:52;11.30;99.90
38726;DHT22;24474;48.906;8.808;2023-03-25T14:10:14;11.30;99.90
38726;DHT22;24474;48.906;8.808;2023-03-25T14:12:49;11.30;99.90
38726;DHT22;24474;48.906;8.808;2023-03-25T14:15:19;11.40;99.90
38726;DHT22;24474;48.906;8.808;2023-03-25T14:17:46;11.40;99.90
38726;DHT22;24474;48.906;8.808;2023-03-25T14:20:32;11.40;99.90
38726;DHT22;24474;48.906;8.808;2023-03-25T14:23:03;11.40;99.90
38726;DHT22;24474;48.906;8.808;2023-03-25T14:25:37;11.50;99.90
38726;DHT22;24474;48.906;8.808;2023-03-25T14:28:04;11.60;99.90
38726;DHT22;24474;48.906;8.808;2023-03-25T14:30:31;11.70;99.90
38726;DHT22;24474;48.906;8.808;2023-03-25T14:32:57;11.70;99.90
38726;DHT22;24474;48.906;8.808;2023-03-25T14:44:09;11.80;99.90
38726;DHT22;24474;48.906;8.808;2023-03-25T14:46:15;11.90;99.90
38726;DHT22;24474;48.906;8.808;2023-03-25T14:54:15;12.00;99.90
38726;DHT22;24474;48.906;8.808;2023-03-25T14:59:15;12.10;99.90
38726;DHT22;24474;48.906;8.808;2023-03-25T15:01:43;12.10;99.90
38726;DHT22;24474;48.906;8.808;2023-03-25T15:04:35;12.10;99.90
38726;DHT22;24474;48.906;8.808;2023-03-25T15:07:04;12.10;99.90
38726;DHT22;24474;48.906;8.808;2023-03-25T15:09:45;12.20;99.90
38726;DHT22;24474;48.906;8.808;2023-03-25T15:12:14;12.20;99.90
38726;DHT22;24474;48.906;8.808;2023-03-25T15:14:41;12.20;99.90
38726;DHT22;24474;48.906;8.808;2023-03-25T15:17:12;12.20;99.90
38726;DHT22;24474;48.906;8.808;2023-03-25T15:22:35;12.20;99.90
38726;DHT22;24474;48.906;8.808;2023-03-25T15:25:03;12.20;99.90
38726;DHT22;24474;48.906;8.808;2023-03-25T15:30:50;12.20;99.90
38726;DHT22;24474;48.906;8.808;2023-03-25T15:42:21;12.10;99.90
38726;DHT22;24474;48.906;8.808;2023-03-25T15:56:24;12.10;99.90
38726;DHT22;24474;48.906;8.808;2023-03-25T15:59:01;12.10;99.90
38726;DHT22;24474;48.906;8.808;2023-03-25T16:01:35;12.10;99.90
38726;DHT22;24474;48.906;8.808;2023-03-25T16:04:35;12.10;99.90
38726;DHT22;24474;48.906;8.808;2023-03-25T16:07:04;12.10;99.90
38726;DHT22;24474;48.906;8.808;2023-03-25T16:09:38;12.00;99.90
38726;DHT22;24474;48.906;8.808;2023-03-25T16:12:08;12.00;99.90
38726;DHT22;24474;48.906;8.808;2023-03-25T16:14:38;12.00;99.90
38726;DHT22;24474;48.906;8.808;2023-03-25T16:17:07;12.00;99.90
38726;DHT22;24474;48.906;8.808;2023-03-25T16:19:52;11.90;99.90
38726;DHT22;24474;48.906;8.808;2023-03-25T16:24:48;11.90;99.90
38726;DHT22;24474;48.906;8.808;2023-03-25T16:27:30;11.80;99.90
38726;DHT22;24474;48.906;8.808;2023-03-25T16:29:58;11.80;99.90
38726;DHT22;24474;48.906;8.808;2023-03-25T16:32:29;11.70;99.90
38726;DHT22;24474;48.906;8.808;2023-03-25T16:34:58;11.70;99.90
38726;DHT22;24474;48.906;8.808;2023-03-25T16:37:25;11.70;99.90
38726;DHT22;24474;48.906;8.808;2023-03-25T16:39:54;11.80;99.90
38726;DHT22;24474;48.906;8.808;2023-03-25T16:42:29;11.90;99.90
38726;DHT22;24474;48.906;8.808;2023-03-25T16:45:00;11.90;99.90
38726;DHT22;24474;48.906;8.808;2023-03-25T16:47:26;11.90;99.90
38726;DHT22;24474;48.906;8.808;2023-03-25T16:50:00;11.80;99.90
38726;DHT22;24474;48.906;8.808;2023-03-25T16:52:28;11.70;99.90
38726;DHT22;24474;48.906;8.808;2023-03-25T16:57:36;11.60;99.90
38726;DHT22;24474;48.906;8.808;2023-03-25T17:00:17;11.60;99.90
38726;DHT22;24474;48.906;8.808;2023-03-25T17:02:45;11.60;99.90
38726;DHT22;24474;48.906;8.808;2023-03-25T17:05:24;11.60;99.90
38726;DHT22;24474;48.906;8.808;2023-03-25T17:08:02;11.50;99.90
38726;DHT22;24474;48.906;8.808;2023-03-25T17:10:40;11.40;99.90
38726;DHT22;24474;48.906;8.808;2023-03-25T17:13:09;11.40;99.90
38726;DHT22;24474;48.906;8.808;2023-03-25T17:15:36;11.40;99.90
38726;DHT22;24474;48.906;8.808;2023-03-25T17:18:12;11.40;99.90
38726;DHT22;24474;48.906;8.808;2023-03-25T17:20:46;11.40;99.90
38726;DHT22;24474;48.906;8.808;2023-03-25T17:26:05;11.30;99.90
38726;DHT22;24474;48.906;8.808;2023-03-25T17:33:52;11.20;99.90
38726;DHT22;24474;48.906;8.808;2023-03-25T17:36:23;11.10;99.90
38726;DHT22;24474;48.906;8.808;2023-03-25T17:38:51;11.10;99.90
38726;DHT22;24474;48.906;8.808;2023-03-25T17:41:20;11.10;99.90
38726;DHT22;24474;48.906;8.808;2023-03-25T17:43:52;11.10;99.90
38726;DHT22;24474;48.906;8.808;2023-03-25T17:46:29;11.00;99.90
38726;DHT22;24474;48.906;8.808;2023-03-25T17:48:57;11.00;99.90
38726;DHT22;24474;48.906;8.808;2023-03-25T17:51:29;11.00;99.90
38726;DHT22;24474;48.906;8.808;2023-03-25T17:53:56;11.00;99.90
38726;DHT22;24474;48.906;8.808;2023-03-25T17:56:26;10.90;99.90
38726;DHT22;24474;48.906;8.808;2023-03-25T17:59:02;10.90;99.90
38726;DHT22;24474;48.906;8.808;2023-03-25T18:01:31;10.90;99.90
38726;DHT22;24474;48.906;8.808;2023-03-25T18:03:59;10.80;99.90
38726;DHT22;24474;48.906;8.808;2023-03-25T18:06:26;10.80;99.90
38726;DHT22;24474;48.906;8.808;2023-03-25T18:08:52;10.80;99.90
38726;DHT22;24474;48.906;8.808;2023-03-25T18:11:19;10.80;99.90
38726;DHT22;24474;48.906;8.808;2023-03-25T18:13:46;10.80;99.90
38726;DHT22;24474;48.906;8.808;2023-03-25T18:16:19;10.80;99.90
38726;DHT22;24474;48.906;8.808;2023-03-25T18:18:45;10.80;99.90
38726;DHT22;24474;48.906;8.808;2023-03-25T18:21:14;10.70;99.90
38726;DHT22;24474;48.906;8.808;2023-03-25T18:23:40;10.70;99.90
38726;DHT22;24474;48.906;8.808;2023-03-25T18:26:15;10.70;99.90
38726;DHT22;24474;48.906;8.808;2023-03-25T18:28:45;10.70;99.90
38726;DHT22;24474;48.906;8.808;2023-03-25T18:31:14;10.70;99.90
38726;DHT22;24474;48.906;8.808;2023-03-25T18:33:46;10.70;99.90
38726;DHT22;24474;48.906;8.808;2023-03-25T18:36:13;10.70;99.90
38726;DHT22;24474;48.906;8.808;2023-03-25T18:38:41;10.60;99.90
38726;DHT22;24474;48.906;8.808;2023-03-25T18:41:10;10.60;99.90
38726;DHT22;24474;48.906;8.808;2023-03-25T18:43:38;10.60;99.90
38726;DHT22;24474;48.906;8.808;2023-03-25T18:46:04;10.60;99.90
38726;DHT22;24474;48.906;8.808;2023-03-25T18:48:30;10.60;99.90
38726;DHT22;24474;48.906;8.808;2023-03-25T18:50:58;10.50;99.90
38726;DHT22;24474;48.906;8.808;2023-03-25T18:53:26;10.60;99.90
38726;DHT22;24474;48.906;8.808;2023-03-25T18:55:54;10.50;99.90
38726;DHT22;24474;48.906;8.808;2023-03-25T18:58:29;10.60;99.90
38726;DHT22;24474;48.906;8.808;2023-03-25T19:00:59;10.50;99.90
38726;DHT22;24474;48.906;8.808;2023-03-25T19:03:25;10.50;99.90
38726;DHT22;24474;48.906;8.808;2023-03-25T19:06:04;10.50;99.90
38726;DHT22;24474;48.906;8.808;2023-03-25T19:08:30;10.50;99.90
38726;DHT22;24474;48.906;8.808;2023-03-25T19:10:58;10.40;99.90